Time;durP1;ratioP1;P1;durP2;ratioP2;P2;SDS_P1;SDS_P2;PMS_P1;PMS_P2;Temp;Humidity;BMP_temperature;BMP_pressure;BME280_temperature;BME280_humidity;BME280_pressure;Samples;Min_cycle;Max_cycle;Signal;HPM_P1;HPM_P2
2022/07/12 00:02:58;;;;;;;2.65;2.30;;;17.80;70.90;;;;;;2355585;57;22078;-75
2022/07/12 00:05:25;;;;;;;2.67;2.25;;;17.70;70.80;;;;;;2346225;57;21203;-75
2022/07/12 00:07:52;;;;;;;3.58;2.35;;;17.70;71.00;;;;;;2345842;57;21085;-75
2022/07/12 00:10:20;;;;;;;6.30;2.70;;;17.70;71.20;;;;;;2358571;56;21118;-75
2022/07/12 00:12:47;;;;;;;4.43;2.58;;;17.70;71.40;;;;;;2374197;56;21661;-76
2022/07/12 00:15:15;;;;;;;5.85;2.97;;;17.60;71.40;;;;;;2374044;56;21051;-75
2022/07/12 00:17:43;;;;;;;3.42;2.62;;;17.60;71.50;;;;;;2374593;56;21154;-75
2022/07/12 00:20:12;;;;;;;4.05;2.87;;;17.50;71.80;;;;;;2374540;56;21118;-75
2022/07/12 00:22:39;;;;;;;3.53;2.78;;;17.50;72.00;;;;;;2374855;56;21052;-75
2022/07/12 00:25:08;;;;;;;2.50;2.10;;;17.50;72.10;;;;;;2374488;56;21483;-75
2022/07/12 00:27:36;;;;;;;6.00;2.92;;;17.50;72.10;;;;;;2373894;56;21106;-75
2022/07/12 00:30:04;;;;;;;3.65;3.05;;;17.50;72.00;;;;;;2374547;56;21120;-76
2022/07/12 00:32:32;;;;;;;4.07;3.53;;;17.50;72.00;;;;;;2374450;56;21090;-75
2022/07/12 00:34:59;;;;;;;3.92;2.72;;;17.50;72.10;;;;;;2373917;56;21612;-75
2022/07/12 00:37:26;;;;;;;3.12;2.83;;;17.40;72.10;;;;;;2373932;56;21043;-75
2022/07/12 00:39:55;;;;;;;3.62;2.90;;;17.40;72.10;;;;;;2374769;56;21078;-75
2022/07/12 00:42:22;;;;;;;5.25;2.58;;;17.40;72.20;;;;;;2375011;56;21066;-75
2022/07/12 00:44:49;;;;;;;4.18;2.85;;;17.40;72.40;;;;;;2374355;56;21035;-75
2022/07/12 00:47:33;;;;;;;5.03;3.53;;;17.40;72.40;;;;;;2374275;56;21050;-75
2022/07/12 00:50:00;;;;;;;5.85;3.10;;;17.30;72.30;;;;;;2373534;56;21113;-75
2022/07/12 00:52:28;;;;;;;3.78;2.92;;;17.30;72.00;;;;;;2375129;56;21122;-75
2022/07/12 00:54:55;;;;;;;5.68;3.70;;;17.30;72.20;;;;;;2374435;56;21134;-75
2022/07/12 00:57:23;;;;;;;4.45;2.90;;;17.30;72.10;;;;;;2373121;56;21181;-75
2022/07/12 00:59:50;;;;;;;4.10;2.58;;;17.30;72.20;;;;;;2374573;56;21038;-75
2022/07/12 01:02:18;;;;;;;4.07;2.75;;;17.30;72.20;;;;;;2373647;56;21058;-75
2022/07/12 01:04:45;;;;;;;3.65;2.70;;;17.30;72.10;;;;;;2374437;56;21118;-75
2022/07/12 01:07:14;;;;;;;6.03;3.15;;;17.30;72.10;;;;;;2373866;56;21067;-75
2022/07/12 01:09:42;;;;;;;4.65;2.92;;;17.30;72.10;;;;;;2374745;56;21031;-75
2022/07/12 01:12:10;;;;;;;3.85;2.65;;;17.30;71.80;;;;;;2374396;56;21066;-75
2022/07/12 01:14:39;;;;;;;2.55;2.12;;;17.30;71.50;;;;;;2373959;56;21062;-76
2022/07/12 01:17:07;;;;;;;2.45;2.10;;;17.30;71.10;;;;;;2371932;56;21047;-76
2022/07/12 01:19:36;;;;;;;3.05;2.60;;;17.30;70.70;;;;;;2373790;56;21161;-75
2022/07/12 01:22:09;;;;;;;5.10;2.95;;;17.30;70.80;;;;;;2373094;56;21142;-75
2022/07/12 01:24:36;;;;;;;4.40;2.60;;;17.30;70.50;;;;;;2374101;56;21019;-76
2022/07/12 01:27:05;;;;;;;3.12;2.37;;;17.40;70.40;;;;;;2372779;56;21153;-76
2022/07/12 01:29:32;;;;;;;3.12;2.65;;;17.30;70.10;;;;;;2373537;56;21110;-75
2022/07/12 01:32:24;;;;;;;4.65;2.95;;;17.30;70.00;;;;;;2371949;56;21103;-76
2022/07/12 01:34:52;;;;;;;4.50;3.12;;;17.30;70.40;;;;;;2626120;52;21051;-75
2022/07/12 01:37:21;;;;;;;3.55;2.80;;;17.20;70.60;;;;;;2371092;56;21051;-75
2022/07/12 01:39:50;;;;;;;3.95;3.17;;;17.20;71.10;;;;;;2372962;56;21035;-76
2022/07/12 01:42:18;;;;;;;3.92;2.92;;;17.20;71.80;;;;;;2372809;56;21047;-76
2022/07/12 01:44:46;;;;;;;4.80;2.70;;;17.20;71.10;;;;;;2373864;56;21149;-75
2022/07/12 01:47:13;;;;;;;3.60;2.70;;;17.10;70.90;;;;;;2372883;56;21094;-75
2022/07/12 01:49:40;;;;;;;3.55;2.60;;;17.10;71.00;;;;;;2626634;52;21050;-75
2022/07/12 01:52:08;;;;;;;2.90;2.62;;;17.10;71.20;;;;;;2373833;56;21598;-75
2022/07/12 01:54:36;;;;;;;3.92;2.95;;;17.10;71.40;;;;;;2373433;56;21325;-76
2022/07/12 01:57:04;;;;;;;4.28;3.15;;;17.10;71.30;;;;;;2372993;56;21109;-75
2022/07/12 01:59:32;;;;;;;3.65;2.87;;;17.10;71.30;;;;;;2373472;56;21617;-75
2022/07/12 02:02:00;;;;;;;3.33;2.62;;;17.00;70.90;;;;;;2373410;56;21024;-75
2022/07/12 02:04:28;;;;;;;3.45;2.33;;;17.00;70.80;;;;;;2372714;56;21074;-75
2022/07/12 02:06:56;;;;;;;3.97;2.80;;;17.00;70.40;;;;;;2372783;56;21090;-75
2022/07/12 02:09:23;;;;;;;3.87;2.60;;;17.00;70.00;;;;;;2373527;56;21036;-75
2022/07/12 02:11:51;;;;;;;3.70;2.87;;;17.00;69.80;;;;;;2373897;56;21019;-75
2022/07/12 02:14:18;;;;;;;3.67;2.72;;;17.00;69.60;;;;;;2372806;56;21086;-75
2022/07/12 02:16:46;;;;;;;5.30;2.50;;;17.00;69.50;;;;;;2370710;56;21106;-76
2022/07/12 02:19:14;;;;;;;5.45;2.70;;;17.00;69.40;;;;;;2373766;56;21039;-76
2022/07/12 02:21:42;;;;;;;4.18;2.70;;;16.90;69.40;;;;;;2373714;56;21034;-75
2022/07/12 02:24:09;;;;;;;6.37;3.08;;;16.90;69.40;;;;;;2627149;52;21026;-76
2022/07/12 02:26:37;;;;;;;3.83;2.87;;;16.90;69.20;;;;;;2372974;56;21095;-75
2022/07/12 02:29:06;;;;;;;3.17;2.53;;;16.90;69.00;;;;;;2373598;56;21110;-75
2022/07/12 02:31:33;;;;;;;4.87;2.83;;;16.90;68.90;;;;;;2373351;56;21050;-75
2022/07/12 02:34:00;;;;;;;5.22;3.12;;;16.90;69.40;;;;;;2372238;56;21047;-75
2022/07/12 02:36:28;;;;;;;2.90;2.60;;;16.80;69.50;;;;;;2372946;56;21131;-75
2022/07/12 02:38:55;;;;;;;4.40;2.60;;;16.80;69.60;;;;;;2373703;56;21601;-75
2022/07/12 02:41:23;;;;;;;4.78;3.08;;;16.70;69.60;;;;;;2373562;56;21110;-75
2022/07/12 02:43:50;;;;;;;2.85;2.55;;;16.70;69.90;;;;;;2373781;56;21119;-75
2022/07/12 02:46:17;;;;;;;4.22;2.90;;;16.70;70.20;;;;;;2372605;56;22125;-75
2022/07/12 02:48:45;;;;;;;4.28;2.87;;;16.70;70.00;;;;;;2372984;56;21047;-75
2022/07/12 02:51:12;;;;;;;3.70;2.87;;;16.70;70.20;;;;;;2373044;56;21070;-75
2022/07/12 02:53:39;;;;;;;2.97;2.50;;;16.70;70.20;;;;;;2374102;56;21028;-75
2022/07/12 02:56:08;;;;;;;4.00;2.95;;;16.60;70.20;;;;;;2372655;56;21043;-75
2022/07/12 02:58:36;;;;;;;3.97;2.90;;;16.60;70.30;;;;;;2373691;56;21039;-75
2022/07/12 03:01:04;;;;;;;4.25;3.20;;;16.60;70.50;;;;;;2372225;56;21181;-75
2022/07/12 03:03:31;;;;;;;8.20;3.10;;;16.60;70.50;;;;;;2373248;56;21055;-75
2022/07/12 03:05:58;;;;;;;3.87;3.30;;;16.60;70.60;;;;;;2372626;56;21027;-75
2022/07/12 03:08:26;;;;;;;3.87;2.85;;;16.60;70.70;;;;;;2373315;56;21043;-75
2022/07/12 03:10:53;;;;;;;2.67;2.35;;;16.60;70.80;;;;;;2373764;56;21675;-76
2022/07/12 03:13:21;;;;;;;3.45;2.65;;;16.50;70.70;;;;;;2373364;56;21055;-75
2022/07/12 03:15:49;;;;;;;3.12;2.55;;;16.60;70.80;;;;;;2372048;56;21122;-75
2022/07/12 03:18:17;;;;;;;4.03;2.47;;;16.50;70.50;;;;;;2373552;56;21054;-75
2022/07/12 03:20:44;;;;;;;2.65;2.08;;;16.50;70.40;;;;;;2372502;56;21558;-75
2022/07/12 03:23:12;;;;;;;5.25;2.80;;;16.50;70.20;;;;;;2373890;56;21629;-75
2022/07/12 03:25:39;;;;;;;8.52;3.37;;;16.50;70.30;;;;;;2372106;56;21047;-75
2022/07/12 03:28:06;;;;;;;4.55;2.70;;;16.50;70.30;;;;;;2372883;56;21051;-76
2022/07/12 03:30:34;;;;;;;5.82;2.55;;;16.50;70.20;;;;;;2372630;56;21031;-76
2022/07/12 03:33:01;;;;;;;4.12;2.90;;;16.50;70.40;;;;;;2373024;56;21127;-76
2022/07/12 03:35:28;;;;;;;3.75;2.70;;;16.40;70.20;;;;;;2372863;56;21043;-76
2022/07/12 03:37:55;;;;;;;4.37;2.50;;;16.40;70.00;;;;;;2373537;56;21055;-76
2022/07/12 03:40:23;;;;;;;3.72;2.60;;;16.50;70.10;;;;;;2372985;56;21050;-75
2022/07/12 03:42:52;;;;;;;6.37;3.78;;;16.50;70.40;;;;;;2373162;56;21031;-76
2022/07/12 03:45:20;;;;;;;3.72;3.05;;;16.40;70.70;;;;;;2372820;56;21090;-76
2022/07/12 03:47:49;;;;;;;3.97;3.17;;;16.40;71.00;;;;;;2373410;56;21054;-76
2022/07/12 03:52:52;;;;;;;4.20;3.78;;;16.40;71.20;;;;;;2336836;57;27723;-76
2022/07/12 03:55:19;;;;;;;5.03;3.65;;;16.10;74.30;;;;;;2375516;56;21538;-76
2022/07/12 03:57:48;;;;;;;9.18;4.30;;;16.30;73.60;;;;;;2375937;56;21058;-76
2022/07/12 04:00:16;;;;;;;5.97;3.53;;;16.40;73.00;;;;;;2387523;56;21054;-76
2022/07/12 04:02:43;;;;;;;5.70;3.50;;;16.40;72.70;;;;;;2664299;52;21599;-76
2022/07/12 04:05:14;;;;;;;6.90;3.92;;;16.40;72.70;;;;;;2404059;56;21216;-75
2022/07/12 04:07:42;;;;;;;4.78;3.05;;;16.40;72.80;;;;;;2403234;56;21615;-75
2022/07/12 04:10:10;;;;;;;5.12;3.60;;;16.40;73.00;;;;;;2403888;56;21042;-75
2022/07/12 04:12:37;;;;;;;4.60;3.53;;;16.40;73.00;;;;;;2404652;56;21547;-76
2022/07/12 04:15:07;;;;;;;7.30;3.75;;;16.40;73.10;;;;;;2403786;56;21041;-75
2022/07/12 04:17:34;;;;;;;4.47;3.12;;;16.40;73.60;;;;;;2403972;56;21038;-76
2022/07/12 04:20:02;;;;;;;4.47;3.20;;;16.40;73.80;;;;;;2404038;56;21045;-76
2022/07/12 04:22:29;;;;;;;6.70;3.30;;;16.40;73.80;;;;;;2404703;56;21528;-76
2022/07/12 04:24:56;;;;;;;3.70;3.05;;;16.40;73.70;;;;;;2404576;56;21045;-76
2022/07/12 04:27:26;;;;;;;4.55;3.47;;;16.40;73.90;;;;;;2403907;56;21033;-76
2022/07/12 04:29:53;;;;;;;4.70;3.37;;;16.40;74.00;;;;;;2404688;56;21025;-76
2022/07/12 04:32:20;;;;;;;5.25;2.87;;;16.40;74.10;;;;;;2403699;56;21054;-76
2022/07/12 04:34:48;;;;;;;6.05;3.30;;;16.40;74.20;;;;;;2492144;51;21066;-73
2022/07/12 04:37:15;;;;;;;6.43;3.35;;;16.50;75.30;;;;;;2288994;59;21162;-73
2022/07/12 04:39:42;;;;;;;5.93;3.12;;;16.50;74.50;;;;;;2289083;59;21052;-72
2022/07/12 04:42:10;;;;;;;3.12;2.83;;;16.50;74.40;;;;;;2289385;59;21072;-72
2022/07/12 04:44:37;;;;;;;4.85;2.90;;;16.50;75.30;;;;;;2289647;59;21080;-73
2022/07/12 04:47:05;;;;;;;4.57;2.90;;;16.60;74.50;;;;;;2288056;59;21108;-73
2022/07/12 04:49:33;;;;;;;4.90;3.15;;;16.60;74.30;;;;;;2289217;59;21187;-71
2022/07/12 04:52:00;;;;;;;5.97;3.03;;;16.70;74.20;;;;;;2344985;55;21138;-72
2022/07/12 04:54:28;;;;;;;3.08;2.58;;;16.70;74.00;;;;;;2289542;59;21222;-72
2022/07/12 04:56:55;;;;;;;3.75;2.92;;;16.70;73.90;;;;;;2359714;55;21080;-73
2022/07/12 04:59:22;;;;;;;5.22;3.20;;;16.70;74.00;;;;;;2289397;59;21084;-72
2022/07/12 05:01:50;;;;;;;4.25;3.17;;;16.70;73.80;;;;;;2288785;59;21052;-72
2022/07/12 05:04:17;;;;;;;5.37;3.17;;;16.80;73.60;;;;;;2287658;59;21100;-73
2022/07/12 05:06:44;;;;;;;4.30;3.12;;;16.80;73.50;;;;;;2287363;59;21076;-73
2022/07/12 05:09:12;;;;;;;5.05;3.42;;;16.80;73.50;;;;;;2288766;59;21056;-73
2022/07/12 05:11:39;;;;;;;3.58;2.80;;;16.80;73.60;;;;;;2288386;59;21075;-73
2022/07/12 05:14:06;;;;;;;4.53;3.05;;;16.80;73.50;;;;;;2288277;59;21333;-73
2022/07/12 05:16:34;;;;;;;3.70;3.05;;;16.90;73.40;;;;;;2288539;59;21061;-73
2022/07/12 05:19:01;;;;;;;6.75;3.62;;;16.90;73.30;;;;;;2287402;59;21061;-73
2022/07/12 05:21:29;;;;;;;5.93;3.50;;;16.90;73.30;;;;;;2287883;59;21158;-72
2022/07/12 05:23:56;;;;;;;4.68;3.15;;;17.00;73.40;;;;;;2286998;59;21646;-72
2022/07/12 05:26:23;;;;;;;5.12;3.28;;;17.00;73.60;;;;;;2288434;59;21056;-72
2022/07/12 05:28:51;;;;;;;4.00;3.17;;;17.10;73.60;;;;;;2288979;59;21064;-72
2022/07/12 05:31:19;;;;;;;5.62;4.10;;;17.10;73.90;;;;;;2288544;59;21151;-72
2022/07/12 05:33:46;;;;;;;5.12;3.42;;;17.10;73.90;;;;;;2287798;59;21064;-72
2022/07/12 05:36:14;;;;;;;4.10;3.30;;;17.20;74.20;;;;;;2338966;55;21048;-72
2022/07/12 05:38:41;;;;;;;5.70;2.87;;;17.20;74.40;;;;;;2287665;59;21072;-72
2022/07/12 05:41:09;;;;;;;3.45;3.00;;;17.20;74.50;;;;;;2288388;58;21104;-72
2022/07/12 05:43:36;;;;;;;8.38;3.75;;;17.30;74.70;;;;;;2288720;59;21116;-73
2022/07/12 05:46:05;;;;;;;3.75;3.00;;;17.40;74.50;;;;;;2287083;59;21147;-72
2022/07/12 05:48:32;;;;;;;8.25;3.50;;;17.40;74.60;;;;;;2287320;59;22599;-71
2022/07/12 05:53:21;;;;;;;6.12;3.40;;;17.50;74.60;;;;;;2286678;59;21139;-72
2022/07/12 05:55:49;;;;;;;5.20;3.42;;;17.50;74.60;;;;;;2287130;59;21132;-72
2022/07/12 05:58:16;;;;;;;5.25;4.20;;;17.60;74.30;;;;;;2286138;59;21300;-71
2022/07/12 06:00:44;;;;;;;6.05;4.25;;;17.60;74.50;;;;;;2286523;59;21136;-73
2022/07/12 06:03:11;;;;;;;7.00;5.18;;;17.70;74.70;;;;;;2469220;55;21060;-72
2022/07/12 06:05:39;;;;;;;8.45;5.18;;;17.70;74.30;;;;;;2409685;55;21079;-73
2022/07/12 06:08:06;;;;;;;8.90;6.18;;;17.80;75.00;;;;;;2288080;59;21139;-73
2022/07/12 06:10:35;;;;;;;8.20;5.93;;;17.80;74.10;;;;;;2287672;59;21112;-72
2022/07/12 06:13:03;;;;;;;9.43;6.68;;;17.90;74.20;;;;;;2288285;59;21048;-73
2022/07/12 06:15:30;;;;;;;11.70;7.87;;;17.90;74.00;;;;;;2288173;59;21566;-73
2022/07/12 06:17:58;;;;;;;8.27;6.40;;;18.00;73.80;;;;;;2287760;59;21710;-73
2022/07/12 06:20:25;;;;;;;12.70;8.18;;;18.00;73.80;;;;;;2287166;59;21672;-73
2022/07/12 06:22:53;;;;;;;10.55;7.65;;;18.10;72.70;;;;;;2288198;59;21124;-73
2022/07/12 06:25:20;;;;;;;10.75;8.02;;;18.20;72.70;;;;;;2287837;59;21132;-73
2022/07/12 06:27:48;;;;;;;8.52;6.60;;;18.20;72.40;;;;;;2286411;59;21740;-73
2022/07/12 06:30:17;;;;;;;10.20;7.32;;;18.30;72.40;;;;;;2285103;59;21174;-73
2022/07/12 06:32:46;;;;;;;13.43;7.47;;;18.40;71.90;;;;;;2283931;59;21140;-73
2022/07/12 06:35:13;;;;;;;7.97;6.85;;;18.50;71.80;;;;;;2286158;59;21068;-72
2022/07/12 06:37:41;;;;;;;10.30;6.70;;;18.40;71.60;;;;;;2285716;59;21129;-73
2022/07/12 06:40:11;;;;;;;9.13;6.43;;;18.50;71.50;;;;;;2286962;59;21155;-72
2022/07/12 06:42:38;;;;;;;8.13;5.95;;;18.60;71.00;;;;;;2355385;55;21061;-73
2022/07/12 06:45:08;;;;;;;8.20;6.28;;;18.60;70.70;;;;;;2285330;59;21099;-72
2022/07/12 06:47:36;;;;;;;6.87;5.68;;;18.70;70.80;;;;;;2285042;59;21485;-73
2022/07/12 06:50:04;;;;;;;8.70;5.90;;;18.80;70.60;;;;;;2284934;59;21800;-73
2022/07/12 06:55:09;;;;;;;6.40;4.28;;;18.90;70.50;;;;;;2353322;57;22086;-74
2022/07/12 06:57:37;;;;;;;7.20;4.62;;;19.00;70.40;;;;;;2345293;57;21140;-73
2022/07/12 07:00:08;;;;;;;5.90;4.80;;;19.10;70.00;;;;;;2353598;56;21058;-73
2022/07/12 07:02:35;;;;;;;6.82;4.07;;;19.10;70.10;;;;;;2373629;52;21129;-73
2022/07/12 07:05:03;;;;;;;4.80;4.32;;;19.20;70.10;;;;;;2370812;56;21083;-73
2022/07/12 07:07:30;;;;;;;5.65;4.35;;;19.30;69.40;;;;;;2370211;56;21621;-73
2022/07/12 07:09:57;;;;;;;6.28;4.50;;;19.30;68.90;;;;;;2371097;56;21122;-75
2022/07/12 07:12:25;;;;;;;6.43;5.22;;;19.40;69.50;;;;;;2378219;52;21125;-72
2022/07/12 07:14:52;;;;;;;8.45;4.72;;;19.40;68.20;;;;;;2372619;56;21050;-74
2022/07/12 07:17:20;;;;;;;4.37;3.65;;;19.50;68.30;;;;;;2376156;52;21102;-72
2022/07/12 07:19:48;;;;;;;5.37;3.67;;;19.50;68.50;;;;;;2404990;52;21043;-73
2022/07/12 07:22:15;;;;;;;4.00;3.53;;;19.60;68.90;;;;;;2372879;56;21073;-73
2022/07/12 07:24:43;;;;;;;5.85;3.60;;;19.70;68.00;;;;;;2372348;56;21608;-74
2022/07/12 07:27:10;;;;;;;5.07;3.50;;;19.80;67.60;;;;;;2423769;52;21067;-73
2022/07/12 07:32:23;;;;;;;3.58;3.28;;;19.90;66.90;;;;;;2373890;52;21591;-74
2022/07/12 07:34:50;;;;;;;4.00;3.10;;;19.90;66.20;;;;;;2460591;52;22552;-74
2022/07/12 07:37:18;;;;;;;4.10;2.97;;;20.00;65.70;;;;;;2370820;56;21581;-74
2022/07/12 07:39:45;;;;;;;3.47;3.03;;;20.00;66.00;;;;;;2497007;52;21102;-76
2022/07/12 07:42:13;;;;;;;3.25;2.95;;;20.00;65.90;;;;;;2371882;56;21035;-74
2022/07/12 07:44:40;;;;;;;2.75;2.55;;;20.10;65.80;;;;;;2372416;56;21054;-72
2022/07/12 07:47:07;;;;;;;3.75;2.67;;;20.20;65.80;;;;;;2371686;56;21067;-72
2022/07/12 07:49:35;;;;;;;4.65;3.35;;;20.20;65.70;;;;;;2373209;56;22180;-72
2022/07/12 07:52:02;;;;;;;6.65;2.72;;;20.20;65.40;;;;;;2374054;56;21031;-74
2022/07/12 07:54:30;;;;;;;3.28;2.30;;;20.30;65.60;;;;;;2374080;56;21023;-73
2022/07/12 07:56:57;;;;;;;2.80;2.55;;;20.30;65.60;;;;;;2372981;56;21089;-73
2022/07/12 07:59:24;;;;;;;2.95;2.60;;;20.30;65.40;;;;;;2372394;56;21549;-74
2022/07/12 08:01:52;;;;;;;2.70;2.03;;;20.40;65.60;;;;;;2371971;56;21070;-74
2022/07/12 08:04:20;;;;;;;4.03;2.25;;;20.40;65.00;;;;;;2372565;56;21030;-73
2022/07/12 08:06:48;;;;;;;4.85;3.50;;;20.40;64.60;;;;;;2394242;52;21035;-74
2022/07/12 08:09:16;;;;;;;3.87;2.30;;;20.40;64.50;;;;;;2374422;56;21050;-74
2022/07/12 08:11:44;;;;;;;3.72;2.03;;;20.40;64.60;;;;;;2373613;56;21297;-74
2022/07/12 08:14:12;;;;;;;3.55;2.28;;;20.50;64.80;;;;;;2372608;56;21035;-74
2022/07/12 08:16:39;;;;;;;3.10;2.30;;;20.50;64.80;;;;;;2429954;52;21533;-74
2022/07/12 08:19:07;;;;;;;4.25;2.12;;;20.50;64.50;;;;;;2381425;52;21125;-74
2022/07/12 08:21:34;;;;;;;2.10;1.90;;;20.60;64.70;;;;;;2373631;56;21130;-74
2022/07/12 08:24:01;;;;;;;3.28;2.15;;;20.60;65.00;;;;;;2372270;56;21035;-74
2022/07/12 08:26:29;;;;;;;2.28;2.08;;;20.70;64.70;;;;;;2373707;56;21118;-74
2022/07/12 08:28:56;;;;;;;3.08;2.45;;;20.70;64.50;;;;;;2374308;56;21119;-74
2022/07/12 08:31:23;;;;;;;2.75;2.15;;;20.80;64.60;;;;;;2374351;56;21035;-73
2022/07/12 08:33:52;;;;;;;2.25;2.05;;;20.90;63.80;;;;;;2374569;56;21051;-74
2022/07/12 08:36:19;;;;;;;2.47;1.90;;;20.90;63.70;;;;;;2372874;56;21522;-74
2022/07/12 08:38:46;;;;;;;5.28;2.60;;;21.00;63.30;;;;;;2374401;56;21098;-74
2022/07/12 08:41:14;;;;;;;2.20;2.00;;;21.00;63.40;;;;;;2372611;56;21640;-74
2022/07/12 08:43:42;;;;;;;2.45;1.75;;;21.10;63.40;;;;;;2372578;56;21114;-74
2022/07/12 08:46:10;;;;;;;1.98;1.70;;;21.20;63.20;;;;;;2373279;56;21704;-74
2022/07/12 08:48:40;;;;;;;2.45;1.62;;;21.20;63.00;;;;;;2494293;52;21047;-74
2022/07/12 08:51:09;;;;;;;4.20;2.22;;;21.30;63.20;;;;;;2374102;56;21095;-74
2022/07/12 08:53:37;;;;;;;2.92;1.80;;;21.30;63.20;;;;;;2374377;56;21137;-74
2022/07/12 08:56:07;;;;;;;1.80;1.67;;;21.40;63.30;;;;;;2372971;56;21134;-74
2022/07/12 08:58:35;;;;;;;2.80;1.85;;;21.50;62.90;;;;;;2602724;52;21099;-74
2022/07/12 09:01:02;;;;;;;2.55;2.05;;;21.50;62.60;;;;;;2497921;52;21593;-74
2022/07/12 09:03:29;;;;;;;2.42;1.98;;;21.50;62.90;;;;;;2568320;52;21051;-74
2022/07/12 09:05:58;;;;;;;4.20;1.95;;;21.60;62.30;;;;;;2373684;56;21114;-74
2022/07/12 09:08:28;;;;;;;3.70;1.92;;;21.60;62.30;;;;;;2372372;56;21121;-74
2022/07/12 09:10:59;;;;;;;4.15;1.65;;;21.60;62.60;;;;;;2371724;56;21122;-75
2022/07/12 09:16:24;;;;;;;2.40;2.00;;;21.80;61.50;;;;;;2306589;57;27830;-74
2022/07/12 09:19:11;;;;;;;2.17;1.48;;;21.90;60.90;;;;;;2342637;57;21054;-75
2022/07/12 09:21:43;;;;;;;2.10;1.90;;;21.90;61.90;;;;;;2342767;57;21109;-74
2022/07/12 09:24:11;;;;;;;5.18;2.20;;;22.00;60.50;;;;;;2345241;57;21054;-74
2022/07/12 09:26:39;;;;;;;2.37;2.00;;;21.90;59.70;;;;;;2341475;57;21090;-74
2022/07/12 09:29:07;;;;;;;2.35;1.52;;;21.90;60.00;;;;;;2365374;53;21054;-74
2022/07/12 09:36:06;;;;;;;2.42;2.00;;;21.90;60.20;;;;;;2392628;53;21051;-75
2022/07/12 09:38:52;;;;;;;2.87;1.98;;;21.90;60.10;;;;;;2345176;57;21133;-74
2022/07/12 09:41:21;;;;;;;2.55;1.70;;;21.80;60.60;;;;;;2343029;57;21078;-74
2022/07/12 09:43:49;;;;;;;4.57;2.00;;;21.70;60.20;;;;;;2344511;57;21188;-74
2022/07/12 09:48:53;;;;;;;2.25;2.05;;;21.70;59.90;;;;;;2355457;57;22114;-77
2022/07/12 09:51:23;;;;;;;3.95;2.10;;;21.80;60.00;;;;;;2369331;56;21086;-78
2022/07/12 09:53:53;;;;;;;2.05;1.85;;;21.80;60.20;;;;;;2373604;56;21101;-76
2022/07/12 09:56:21;;;;;;;3.17;1.80;;;21.70;60.00;;;;;;2372717;56;21127;-76
2022/07/12 09:58:53;;;;;;;2.33;2.12;;;21.60;60.20;;;;;;2373392;56;21537;-77
2022/07/12 10:01:21;;;;;;;2.00;1.77;;;21.60;60.70;;;;;;2409932;52;21133;-77
2022/07/12 10:03:50;;;;;;;3.83;1.70;;;21.70;61.20;;;;;;2373884;56;21046;-76
2022/07/12 10:09:01;;;;;;;2.78;1.80;;;21.70;60.50;;;;;;2354921;57;22086;-75
2022/07/12 10:11:29;;;;;;;1.77;1.48;;;21.80;59.90;;;;;;2396885;52;21604;-75
2022/07/12 10:13:56;;;;;;;3.10;1.70;;;21.80;59.60;;;;;;2374042;56;21098;-75
2022/07/12 10:16:27;;;;;;;3.37;2.00;;;21.90;59.80;;;;;;2450559;52;21553;-75
2022/07/12 10:19:32;;;;;;;2.53;1.70;;;21.90;59.80;;;;;;2373932;56;21055;-75
2022/07/12 10:22:01;;;;;;;2.12;1.50;;;21.90;59.80;;;;;;2374071;56;21047;-75
2022/07/12 10:27:39;;;;;;;3.37;1.50;;;21.90;59.10;;;;;;2367866;53;22089;-76
2022/07/12 10:30:21;;;;;;;2.17;1.77;;;21.80;59.40;;;;;;2418694;53;21058;-77
2022/07/12 10:32:49;;;;;;;2.40;1.67;;;21.90;59.70;;;;;;2579826;52;21601;-75
2022/07/12 10:35:21;;;;;;;2.92;1.75;;;21.90;59.70;;;;;;2451023;54;21129;-73
2022/07/12 10:38:20;;;;;;;2.33;1.62;;;21.90;58.90;;;;;;2303142;58;21074;-73
2022/07/12 10:46:25;;;;;;;1.92;1.70;;;22.10;57.70;;;;;;2344827;57;21038;-73
2022/07/12 10:49:12;;;;;;;3.17;1.25;;;22.10;57.70;;;;;;2593347;52;21646;-73
2022/07/12 10:51:39;;;;;;;1.52;1.30;;;22.10;57.80;;;;;;2373864;56;21065;-72
2022/07/12 10:54:22;;;;;;;2.87;1.40;;;22.30;58.00;;;;;;2374389;56;21600;-75
2022/07/12 10:56:57;;;;;;;1.37;1.25;;;22.30;57.90;;;;;;2626922;52;21095;-75
2022/07/12 10:59:25;;;;;;;1.70;1.30;;;22.50;57.60;;;;;;2373801;56;21056;-73
2022/07/12 11:01:55;;;;;;;2.45;1.33;;;22.50;57.40;;;;;;2373565;56;21055;-74
2022/07/12 11:04:22;;;;;;;4.15;1.33;;;22.60;58.30;;;;;;2373496;56;21047;-73
2022/07/12 11:06:55;;;;;;;2.20;1.20;;;22.60;57.90;;;;;;2373143;56;21036;-74
2022/07/12 11:09:23;;;;;;;1.90;1.40;;;22.80;57.90;;;;;;2625895;52;21035;-73
2022/07/12 11:11:52;;;;;;;1.20;1.10;;;22.90;57.90;;;;;;2374541;56;21126;-75
2022/07/12 11:14:23;;;;;;;2.30;1.37;;;23.00;58.00;;;;;;2373898;56;21055;-75
2022/07/12 11:16:52;;;;;;;1.20;1.05;;;23.10;57.80;;;;;;2373449;56;21099;-74
2022/07/12 11:19:23;;;;;;;1.77;1.17;;;23.30;57.40;;;;;;2373700;56;21157;-75
2022/07/12 11:21:55;;;;;;;1.42;1.23;;;23.40;57.30;;;;;;2372243;56;21106;-75
2022/07/12 11:24:24;;;;;;;5.00;1.20;;;23.50;56.90;;;;;;2627004;52;21110;-73
2022/07/12 11:26:52;;;;;;;1.55;1.20;;;23.60;56.70;;;;;;2371457;56;21101;-74
2022/07/12 11:29:20;;;;;;;3.15;1.20;;;23.80;56.60;;;;;;2373119;56;21055;-76
2022/07/12 11:31:49;;;;;;;1.58;1.20;;;23.90;56.50;;;;;;2374288;56;21308;-75
2022/07/12 11:34:23;;;;;;;1.27;1.17;;;24.00;56.60;;;;;;2372325;56;21106;-75
2022/07/12 11:36:53;;;;;;;2.75;1.10;;;24.20;56.50;;;;;;2372705;56;21054;-74
2022/07/12 11:39:32;;;;;;;2.17;1.67;;;24.40;56.10;;;;;;2372989;56;21652;-74
2022/07/12 11:42:00;;;;;;;1.48;1.20;;;24.60;55.80;;;;;;2373765;56;21114;-74
2022/07/12 11:44:43;;;;;;;2.72;1.65;;;24.70;55.40;;;;;;2373937;56;21055;-75
2022/07/12 11:47:11;;;;;;;1.65;1.40;;;24.90;55.50;;;;;;2372679;56;21055;-73
2022/07/12 11:49:42;;;;;;;2.87;1.27;;;25.10;55.00;;;;;;2372930;56;21043;-76
2022/07/12 11:52:11;;;;;;;3.10;1.50;;;25.30;54.60;;;;;;2373889;56;21055;-75
2022/07/12 11:54:39;;;;;;;1.55;1.45;;;25.30;53.40;;;;;;2373017;56;21624;-75
2022/07/12 11:57:08;;;;;;;2.62;1.40;;;25.50;53.00;;;;;;2370562;56;21134;-75
2022/07/12 11:59:36;;;;;;;3.15;1.27;;;25.60;53.10;;;;;;2370860;56;21118;-74
2022/07/12 12:02:08;;;;;;;1.70;1.37;;;25.70;53.20;;;;;;2371838;56;21082;-76
2022/07/12 12:04:46;;;;;;;6.20;1.40;;;25.90;52.70;;;;;;2372621;56;21601;-75
2022/07/12 12:07:16;;;;;;;2.47;1.08;;;25.90;53.00;;;;;;2372428;56;21111;-75
2022/07/12 12:10:04;;;;;;;2.20;1.33;;;26.10;52.90;;;;;;2372656;56;21082;-76
2022/07/12 12:12:41;;;;;;;3.03;1.30;;;26.20;53.10;;;;;;2624764;52;21106;-75
2022/07/12 12:15:11;;;;;;;1.40;1.20;;;26.40;52.70;;;;;;2372504;56;21059;-76
2022/07/12 12:17:45;;;;;;;1.20;1.10;;;26.40;51.60;;;;;;2372634;56;21039;-76
2022/07/12 12:20:15;;;;;;;1.58;1.12;;;26.40;51.70;;;;;;2372915;56;21035;-76
2022/07/12 12:22:44;;;;;;;1.15;1.05;;;26.50;51.90;;;;;;2372730;56;21577;-74
2022/07/12 12:25:14;;;;;;;2.47;1.40;;;26.60;51.90;;;;;;2625021;52;21337;-76
2022/07/12 12:27:49;;;;;;;3.22;1.10;;;26.70;51.90;;;;;;2624780;52;21368;-73
2022/07/12 12:30:17;;;;;;;1.70;1.20;;;26.80;52.30;;;;;;2373498;56;21051;-75
2022/07/12 12:32:51;;;;;;;0.98;0.90;;;26.80;51.30;;;;;;2372466;56;21549;-75
2022/07/12 12:35:20;;;;;;;1.73;0.93;;;26.70;51.80;;;;;;2372694;56;21098;-72
2022/07/12 12:37:52;;;;;;;1.60;1.02;;;26.80;51.30;;;;;;2373232;56;21122;-74
2022/07/12 12:40:21;;;;;;;0.98;0.88;;;26.90;51.60;;;;;;2372602;56;21047;-75
2022/07/12 12:42:48;;;;;;;0.80;0.80;;;27.00;51.20;;;;;;2624348;52;21091;-72
2022/07/12 12:45:23;;;;;;;0.75;0.75;;;27.10;51.20;;;;;;2371695;56;21525;-74
2022/07/12 12:47:55;;;;;;;1.08;0.95;;;27.20;50.70;;;;;;2372522;56;21063;-74
2022/07/12 12:50:43;;;;;;;1.85;0.73;;;27.30;49.80;;;;;;2372809;56;21658;-73
2022/07/12 12:53:13;;;;;;;0.50;0.50;;;27.40;50.00;;;;;;2372881;56;21027;-76
2022/07/12 12:55:41;;;;;;;0.55;0.55;;;27.40;49.50;;;;;;2372124;56;21090;-75
2022/07/12 12:58:09;;;;;;;1.27;0.98;;;27.50;49.10;;;;;;2372034;56;21023;-77
2022/07/12 13:00:38;;;;;;;1.30;0.80;;;27.60;49.20;;;;;;2371838;56;21089;-75
2022/07/12 13:03:06;;;;;;;1.10;0.88;;;27.60;49.80;;;;;;2371482;56;21138;-74
2022/07/12 13:08:12;;;;;;;0.80;0.80;;;27.70;49.60;;;;;;2355291;57;22078;-75
2022/07/12 13:10:40;;;;;;;0.90;0.90;;;27.70;49.00;;;;;;2362515;56;21094;-75
2022/07/12 13:13:09;;;;;;;0.68;0.68;;;27.80;49.10;;;;;;2374315;56;21027;-76
2022/07/12 13:15:37;;;;;;;0.85;0.80;;;27.90;48.30;;;;;;2627963;52;21138;-76
2022/07/12 13:18:05;;;;;;;0.80;0.80;;;27.90;48.00;;;;;;2372346;56;21051;-74
2022/07/12 13:20:34;;;;;;;1.27;0.90;;;27.90;48.50;;;;;;2373369;56;21046;-73
2022/07/12 13:23:01;;;;;;;2.20;0.85;;;28.00;47.90;;;;;;2373319;56;21130;-74
2022/07/12 13:25:30;;;;;;;1.92;0.90;;;28.10;47.80;;;;;;2371680;56;21145;-74
2022/07/12 13:27:58;;;;;;;0.73;0.73;;;28.10;47.60;;;;;;2372747;56;21027;-74
2022/07/12 13:30:25;;;;;;;0.77;0.70;;;28.20;48.10;;;;;;2373963;56;21545;-75